createdAt,value
2019-03-10T00:00:29.249Z,8.93
2019-03-10T00:02:57.989Z,10.15
2019-03-10T00:05:26.416Z,8.63
2019-03-10T00:07:54.751Z,8.75
2019-03-10T00:10:23.790Z,8.30
2019-03-10T00:12:52.374Z,7.60
2019-03-10T00:15:20.862Z,8.15
2019-03-10T00:17:49.209Z,8.23
2019-03-10T00:20:17.705Z,8.00
2019-03-10T00:22:46.045Z,8.40
2019-03-10T00:25:14.832Z,9.25
2019-03-10T00:27:43.370Z,8.95
2019-03-10T00:30:12.566Z,9.35
2019-03-10T00:32:41.351Z,10.23
2019-03-10T00:35:09.994Z,9.38
2019-03-10T00:37:38.442Z,6.70
2019-03-10T00:41:13.281Z,7.03
2019-03-10T00:44:37.183Z,9.65
2019-03-10T00:48:13.300Z,9.40
2019-03-10T00:51:37.521Z,9.53
2019-03-10T00:54:06.105Z,9.08
2019-03-10T00:56:34.792Z,9.53
2019-03-10T00:59:03.770Z,8.60
2019-03-10T01:01:32.129Z,8.85
2019-03-10T01:04:01.418Z,7.37
2019-03-10T01:06:29.703Z,7.62
2019-03-10T01:08:58.203Z,7.87
2019-03-10T01:11:26.666Z,8.03
2019-03-10T01:13:55.103Z,9.65
2019-03-10T01:16:24.914Z,4.78
2019-03-10T01:18:54.166Z,4.03
2019-03-10T01:21:22.752Z,3.37
2019-03-10T01:23:51.558Z,3.10
2019-03-10T01:26:19.958Z,3.20
2019-03-10T01:28:48.688Z,3.45
2019-03-10T01:31:35.048Z,3.42
2019-03-10T01:34:43.096Z,3.22
2019-03-10T01:37:11.607Z,3.45
2019-03-10T01:39:39.879Z,3.85
2019-03-10T01:42:08.514Z,3.37
2019-03-10T01:44:36.915Z,3.85
2019-03-10T01:47:05.310Z,4.00
2019-03-10T01:49:33.996Z,4.25
2019-03-10T01:52:02.387Z,4.33
2019-03-10T01:54:30.929Z,4.70
2019-03-10T01:56:59.452Z,5.08
2019-03-10T01:59:27.846Z,4.15
2019-03-10T02:01:56.577Z,4.87
2019-03-10T02:04:25.332Z,4.12
2019-03-10T02:06:53.913Z,3.90
2019-03-10T02:09:22.274Z,4.25
2019-03-10T02:11:50.925Z,4.22
2019-03-10T02:14:19.422Z,4.20
2019-03-10T02:16:48.145Z,4.40
2019-03-10T02:19:16.977Z,5.55
2019-03-10T02:21:45.456Z,4.50
2019-03-10T02:24:23.361Z,6.00
2019-03-10T02:26:44.298Z,6.83
2019-03-10T02:29:12.702Z,5.90
2019-03-10T02:31:41.118Z,6.30
2019-03-10T02:34:09.484Z,6.03
2019-03-10T02:36:37.889Z,5.42
2019-03-10T02:39:06.715Z,5.25
2019-03-10T02:41:35.368Z,4.47
2019-03-10T02:44:03.912Z,4.75
2019-03-10T02:46:32.454Z,3.30
2019-03-10T02:49:01.242Z,3.52
2019-03-10T02:51:29.721Z,2.70
2019-03-10T02:53:58.040Z,3.33
2019-03-10T02:56:26.685Z,3.45
2019-03-10T02:58:55.025Z,3.40
2019-03-10T03:01:23.916Z,2.70
2019-03-10T03:03:52.378Z,2.80
2019-03-10T03:06:20.709Z,2.72
2019-03-10T03:08:49.162Z,2.47
2019-03-10T03:11:17.737Z,3.05
2019-03-10T03:13:45.990Z,2.92
2019-03-10T03:16:14.415Z,3.33
2019-03-10T03:18:42.709Z,3.20
2019-03-10T03:21:11.197Z,3.65
2019-03-10T03:23:39.513Z,3.37
2019-03-10T03:26:08.374Z,3.92
2019-03-10T03:28:36.860Z,3.50
2019-03-10T03:31:05.576Z,2.60
2019-03-10T03:33:34.063Z,3.17
2019-03-10T03:36:10.185Z,3.00
2019-03-10T03:38:43.670Z,4.00
2019-03-10T03:41:15.119Z,3.67
2019-03-10T03:43:43.454Z,3.02
2019-03-10T03:46:11.789Z,2.37
2019-03-10T03:48:40.166Z,2.58
2019-03-10T03:51:09.206Z,2.42
2019-03-10T03:53:37.510Z,3.15
2019-03-10T03:56:05.919Z,3.70
2019-03-10T03:58:34.702Z,3.52
2019-03-10T04:01:09.461Z,3.47
2019-03-10T04:03:38.489Z,4.67
2019-03-10T04:06:06.847Z,4.03
2019-03-10T04:08:35.240Z,4.33
2019-03-10T04:11:03.579Z,4.62
2019-03-10T04:13:32.142Z,4.67
2019-03-10T04:16:00.644Z,5.28
2019-03-10T04:18:29.380Z,5.85
2019-03-10T04:20:57.748Z,5.08
2019-03-10T04:23:26.122Z,4.80
2019-03-10T04:25:54.849Z,4.75
2019-03-10T04:28:23.154Z,5.33
2019-03-10T04:30:51.442Z,4.70
2019-03-10T04:33:19.625Z,4.90
2019-03-10T04:35:48.299Z,5.72
2019-03-10T04:38:17.009Z,6.37
2019-03-10T04:40:45.764Z,5.12
2019-03-10T04:43:14.406Z,5.10
2019-03-10T04:45:42.740Z,4.40
2019-03-10T04:48:11.779Z,5.08
2019-03-10T04:50:40.157Z,5.15
2019-03-10T04:53:08.699Z,4.35
2019-03-10T04:55:56.728Z,5.25
2019-03-10T04:58:24.979Z,5.25
2019-03-10T05:00:55.365Z,4.00
2019-03-10T05:03:23.865Z,3.72
2019-03-10T05:05:52.179Z,4.53
2019-03-10T05:08:20.911Z,3.25
2019-03-10T05:10:49.314Z,3.35
2019-03-10T05:13:17.659Z,3.08
2019-03-10T05:15:46.001Z,3.72
2019-03-10T05:18:14.459Z,3.25
2019-03-10T05:20:43.236Z,3.33
2019-03-10T05:23:43.622Z,4.37
2019-03-10T05:26:13.621Z,3.08
2019-03-10T05:28:46.785Z,3.15
2019-03-10T05:31:15.362Z,3.00
2019-03-10T05:33:44.091Z,3.02
2019-03-10T05:36:12.963Z,4.40
2019-03-10T05:38:41.857Z,2.62
2019-03-10T05:41:10.412Z,3.00
2019-03-10T05:43:38.831Z,3.33
2019-03-10T05:46:07.298Z,2.75
2019-03-10T05:48:35.681Z,3.25
2019-03-10T05:51:04.244Z,2.77
2019-03-10T05:53:32.950Z,3.12
2019-03-10T05:56:03.109Z,2.55
2019-03-10T05:58:31.511Z,2.60
2019-03-10T06:00:59.928Z,2.75
2019-03-10T06:03:28.279Z,3.30
2019-03-10T06:05:56.688Z,2.90
2019-03-10T06:08:25.077Z,4.05
2019-03-10T06:10:53.748Z,3.00
2019-03-10T06:13:22.466Z,3.87
2019-03-10T06:15:50.794Z,3.80
2019-03-10T06:18:19.215Z,3.33
2019-03-10T06:20:47.547Z,3.70
2019-03-10T06:23:16.133Z,4.80
2019-03-10T06:25:44.644Z,3.70
2019-03-10T06:28:12.993Z,3.40
2019-03-10T06:30:41.731Z,4.20
2019-03-10T06:33:10.360Z,4.30
2019-03-10T06:35:38.954Z,3.85
2019-03-10T06:38:07.448Z,3.90
2019-03-10T06:40:36.248Z,4.20
2019-03-10T06:43:04.811Z,4.87
2019-03-10T06:45:33.503Z,3.52
2019-03-10T06:48:01.903Z,3.75
2019-03-10T06:50:30.291Z,4.85
2019-03-10T06:52:58.614Z,4.00
2019-03-10T06:55:27.296Z,3.30
2019-03-10T06:57:56.019Z,3.42
2019-03-10T07:00:24.752Z,4.20
2019-03-10T07:02:53.564Z,3.87
2019-03-10T07:05:22.163Z,3.85
2019-03-10T07:07:50.488Z,3.65
2019-03-10T07:10:19.241Z,3.92
2019-03-10T07:12:47.644Z,4.03
2019-03-10T07:15:16.374Z,4.15
2019-03-10T07:17:44.924Z,3.90
2019-03-10T07:20:15.582Z,3.85
2019-03-10T07:25:12.192Z,3.62
2019-03-10T07:28:08.937Z,5.40
2019-03-10T07:30:51.120Z,3.42
2019-03-10T07:33:33.871Z,3.52
2019-03-10T07:36:20.350Z,3.72
2019-03-10T07:39:13.702Z,3.50
2019-03-10T07:42:07.483Z,3.10
2019-03-10T07:44:47.015Z,4.05
2019-03-10T07:47:25.333Z,3.77
2019-03-10T07:50:16.536Z,4.45
2019-03-10T07:52:56.294Z,2.90
2019-03-10T07:55:37.571Z,3.10
2019-03-10T07:58:17.275Z,3.08
2019-03-10T08:01:14.406Z,3.45
2019-03-10T08:04:11.354Z,3.65
2019-03-10T08:06:56.974Z,4.45
2019-03-10T08:09:51.656Z,3.25
2019-03-10T08:12:29.208Z,3.52
2019-03-10T08:15:19.778Z,3.83
2019-03-10T08:18:02.814Z,4.15
2019-03-10T08:20:59.976Z,4.00
2019-03-10T08:23:45.874Z,4.87
2019-03-10T08:26:36.836Z,5.17
2019-03-10T08:29:23.604Z,4.33
2019-03-10T08:32:20.882Z,4.15
2019-03-10T08:35:14.811Z,4.30
2019-03-10T08:38:03.328Z,4.15
2019-03-10T08:40:57.552Z,4.15
2019-03-10T08:43:36.372Z,4.15
2019-03-10T08:46:17.610Z,3.87
2019-03-10T08:49:01.657Z,4.00
2019-03-10T08:51:52.669Z,3.52
2019-03-10T08:54:34.044Z,3.30
2019-03-10T08:57:16.242Z,3.83
2019-03-10T08:59:55.931Z,5.05
2019-03-10T09:02:42.348Z,4.67
2019-03-10T09:05:31.319Z,4.05
2019-03-10T09:08:34.384Z,4.15
2019-03-10T09:11:20.943Z,3.50
2019-03-10T09:14:04.452Z,3.12
2019-03-10T09:16:48.390Z,4.05
2019-03-10T09:19:28.986Z,3.75
2019-03-10T09:22:16.973Z,3.17
2019-03-10T09:24:51.457Z,4.20
2019-03-10T09:27:37.982Z,4.58
2019-03-10T09:30:29.213Z,3.67
2019-03-10T09:33:15.890Z,4.15
2019-03-10T09:36:04.236Z,3.90
2019-03-10T09:38:47.071Z,3.67
2019-03-10T09:41:34.058Z,3.90
2019-03-10T09:44:22.522Z,3.40
2019-03-10T09:47:05.848Z,3.77
2019-03-10T09:49:56.847Z,3.62
2019-03-10T09:52:50.816Z,4.10
2019-03-10T09:55:30.708Z,3.50
2019-03-10T09:58:06.869Z,4.00
2019-03-10T10:01:00.714Z,4.25
2019-03-10T10:03:40.084Z,3.37
2019-03-10T10:06:31.167Z,3.40
2019-03-10T10:09:31.096Z,4.45
2019-03-10T10:12:18.666Z,4.25
2019-03-10T10:15:05.141Z,4.05
2019-03-10T10:17:59.008Z,4.05
2019-03-10T10:20:56.470Z,3.90
2019-03-10T10:23:44.890Z,4.25
2019-03-10T10:26:33.340Z,4.35
2019-03-10T10:29:13.422Z,4.05
2019-03-10T10:31:50.460Z,4.00
2019-03-10T10:34:33.552Z,4.25
2019-03-10T10:37:17.783Z,4.65
2019-03-10T10:40:05.828Z,3.17
2019-03-10T10:42:43.484Z,3.55
2019-03-10T10:45:23.255Z,3.60
2019-03-10T10:48:11.199Z,3.62
2019-03-10T10:50:49.073Z,3.25
2019-03-10T10:53:40.453Z,3.70
2019-03-10T10:56:37.717Z,3.50
2019-03-10T10:59:28.629Z,3.60
2019-03-10T11:05:19.075Z,3.20
2019-03-10T11:07:55.871Z,3.65
2019-03-10T11:10:46.639Z,2.85
2019-03-10T11:13:33.219Z,3.15
2019-03-10T11:16:21.119Z,3.80
2019-03-10T11:19:08.914Z,3.65
2019-03-10T11:21:55.720Z,2.80
2019-03-10T11:24:32.562Z,3.02
2019-03-10T11:27:15.435Z,2.65
2019-03-10T11:29:55.951Z,3.52
2019-03-10T11:32:31.965Z,3.87
2019-03-10T11:35:29.408Z,2.77
2019-03-10T11:38:17.488Z,4.17
2019-03-10T11:41:02.782Z,3.27
2019-03-10T11:43:35.981Z,3.62
2019-03-10T11:46:38.588Z,3.40
2019-03-10T11:49:42.189Z,3.45
2019-03-10T11:52:25.918Z,3.80
2019-03-10T11:55:22.646Z,3.85
2019-03-10T11:58:19.626Z,3.77
2019-03-10T12:01:02.284Z,3.52
2019-03-10T12:03:59.197Z,4.00
2019-03-10T12:06:56.165Z,4.10
2019-03-10T12:09:24.518Z,3.72
2019-03-10T12:11:52.848Z,3.10
2019-03-10T12:14:21.198Z,3.40
2019-03-10T12:16:49.697Z,3.67
2019-03-10T12:19:18.368Z,3.60
2019-03-10T12:21:47.005Z,3.42
2019-03-10T12:24:15.796Z,3.83
2019-03-10T12:26:44.384Z,4.50
2019-03-10T12:29:12.769Z,4.08
2019-03-10T12:31:41.125Z,3.67
2019-03-10T12:34:09.677Z,4.12
2019-03-10T12:36:38.343Z,4.28
2019-03-10T12:39:08.253Z,4.95
2019-03-10T12:41:37.096Z,4.80
2019-03-10T12:44:06.118Z,4.97
2019-03-10T12:46:34.436Z,4.70
2019-03-10T12:49:03.358Z,4.42
2019-03-10T12:51:31.872Z,4.55
2019-03-10T12:54:00.537Z,3.55
2019-03-10T12:56:28.976Z,5.25
2019-03-10T12:58:57.356Z,3.98
2019-03-10T13:01:26.044Z,4.53
2019-03-10T13:03:58.758Z,4.40
2019-03-10T13:06:24.635Z,4.05
2019-03-10T13:08:53.348Z,4.58
2019-03-10T13:11:22.026Z,3.80
2019-03-10T13:13:50.690Z,4.00
2019-03-10T13:16:19.340Z,4.05
2019-03-10T13:18:47.743Z,3.75
2019-03-10T13:21:16.475Z,3.87
2019-03-10T13:23:44.742Z,4.33
2019-03-10T13:26:13.204Z,4.25
2019-03-10T13:28:41.492Z,3.33
2019-03-10T13:31:09.925Z,4.17
2019-03-10T13:33:38.335Z,4.00
2019-03-10T13:36:07.733Z,3.58
2019-03-10T13:38:35.995Z,4.15
2019-03-10T13:41:04.805Z,4.58
2019-03-10T13:43:33.810Z,5.10
2019-03-10T13:46:03.027Z,4.47
2019-03-10T13:48:31.800Z,4.83
2019-03-10T13:51:00.360Z,5.00
2019-03-10T13:53:29.122Z,5.97
2019-03-10T13:55:57.678Z,5.65
2019-03-10T13:58:26.255Z,5.58
2019-03-10T14:00:54.967Z,5.15
2019-03-10T14:03:23.395Z,5.10
2019-03-10T14:05:51.907Z,4.40
2019-03-10T14:08:20.843Z,4.53
2019-03-10T14:10:51.534Z,5.22
2019-03-10T14:13:20.670Z,5.28
2019-03-10T14:15:49.552Z,4.78
2019-03-10T14:18:18.161Z,5.22
2019-03-10T14:20:46.831Z,4.72
2019-03-10T14:23:15.326Z,5.00
2019-03-10T14:25:44.145Z,4.42
2019-03-10T14:28:12.884Z,5.25
2019-03-10T14:30:41.315Z,4.40
2019-03-10T14:33:10.051Z,4.85
2019-03-10T14:35:38.514Z,4.05
2019-03-10T14:38:07.424Z,4.42
2019-03-10T14:40:36.003Z,4.15
2019-03-10T14:43:04.776Z,4.90
2019-03-10T14:45:33.581Z,4.70
2019-03-10T14:48:01.941Z,5.67
2019-03-10T14:50:30.389Z,4.65
2019-03-10T14:52:59.150Z,4.42
2019-03-10T14:55:27.729Z,5.55
2019-03-10T14:57:56.491Z,5.80
2019-03-10T15:00:25.144Z,5.65
2019-03-10T15:02:53.368Z,5.00
2019-03-10T15:05:22.194Z,4.67
2019-03-10T15:07:50.627Z,5.05
2019-03-10T15:10:19.463Z,4.42
2019-03-10T15:12:47.959Z,5.30
2019-03-10T15:15:22.207Z,5.50
2019-03-10T15:17:47.209Z,5.75
2019-03-10T15:20:16.373Z,4.72
2019-03-10T15:22:45.123Z,4.00
2019-03-10T15:25:13.535Z,4.37
2019-03-10T15:27:41.987Z,4.47
2019-03-10T15:30:15.820Z,5.87
2019-03-10T15:32:44.494Z,4.97
2019-03-10T15:35:13.292Z,4.20
2019-03-10T15:37:42.184Z,3.90
2019-03-10T15:40:12.038Z,5.22
2019-03-10T15:42:40.511Z,5.03
2019-03-10T15:45:10.300Z,5.28
2019-03-10T15:47:38.884Z,6.10
2019-03-10T15:50:15.723Z,5.97
2019-03-10T15:52:44.305Z,6.05
2019-03-10T15:55:13.124Z,6.70
2019-03-10T15:57:49.527Z,6.08
2019-03-10T16:00:14.616Z,5.35
2019-03-10T16:02:43.222Z,6.50
2019-03-10T16:05:12.182Z,7.60
2019-03-10T16:07:40.562Z,7.17
2019-03-10T16:10:10.284Z,7.78
2019-03-10T16:12:39.223Z,8.43
2019-03-10T16:15:11.078Z,6.62
2019-03-10T16:17:39.606Z,5.53
2019-03-10T16:20:09.857Z,5.40
2019-03-10T16:22:38.573Z,6.47
2019-03-10T16:25:09.111Z,6.12
2019-03-10T16:27:37.307Z,5.97
2019-03-10T16:30:09.418Z,5.83
2019-03-10T16:32:39.091Z,6.17
2019-03-10T16:35:08.133Z,5.80
2019-03-10T16:37:36.496Z,6.15
2019-03-10T16:40:07.180Z,6.85
2019-03-10T16:42:36.025Z,6.10
2019-03-10T16:45:05.311Z,5.80
2019-03-10T16:47:34.353Z,5.70
2019-03-10T16:50:03.313Z,4.87
2019-03-10T16:52:31.670Z,4.80
2019-03-10T16:55:00.115Z,5.72
2019-03-10T16:57:28.777Z,4.67
2019-03-10T16:59:57.254Z,4.90
2019-03-10T17:02:25.857Z,4.37
2019-03-10T17:04:54.187Z,5.50
2019-03-10T17:07:23.096Z,6.35
2019-03-10T17:09:51.546Z,6.42
2019-03-10T17:12:20.248Z,6.05
2019-03-10T17:14:48.810Z,5.65
2019-03-10T17:17:17.988Z,5.53
2019-03-10T17:19:46.432Z,5.97
2019-03-10T17:22:15.047Z,5.42
2019-03-10T17:24:43.797Z,5.30
2019-03-10T17:27:12.403Z,5.58
2019-03-10T17:29:40.766Z,5.40
2019-03-10T17:32:09.102Z,4.90
2019-03-10T17:34:37.577Z,6.30
2019-03-10T17:37:05.897Z,6.47
2019-03-10T17:39:34.265Z,6.20
2019-03-10T17:42:03.039Z,6.90
2019-03-10T17:44:40.669Z,6.72
2019-03-10T17:47:01.850Z,7.65
2019-03-10T17:49:30.235Z,6.37
2019-03-10T17:51:58.624Z,7.08
2019-03-10T17:54:27.017Z,7.80
2019-03-10T17:56:55.648Z,7.47
2019-03-10T17:59:24.352Z,6.25
2019-03-10T18:01:52.747Z,6.55
2019-03-10T18:04:21.523Z,6.90
2019-03-10T18:06:50.103Z,6.62
2019-03-10T18:09:18.559Z,7.87
2019-03-10T18:11:46.866Z,6.92
2019-03-10T18:14:15.302Z,7.20
2019-03-10T18:16:43.681Z,7.10
2019-03-10T18:19:12.176Z,8.18
2019-03-10T18:21:40.832Z,7.53
2019-03-10T18:24:09.062Z,7.35
2019-03-10T18:26:37.485Z,8.63
2019-03-10T18:29:05.918Z,7.90
2019-03-10T18:31:34.502Z,7.60
2019-03-10T18:34:03.165Z,7.65
2019-03-10T18:36:31.888Z,8.55
2019-03-10T18:39:00.610Z,9.33
2019-03-10T18:41:29.035Z,8.35
2019-03-10T18:43:57.434Z,9.08
2019-03-10T18:46:26.067Z,10.25
2019-03-10T18:48:54.481Z,10.43
2019-03-10T18:51:23.118Z,10.72
2019-03-10T18:53:51.560Z,11.45
2019-03-10T18:56:20.614Z,11.63
2019-03-10T18:58:49.241Z,9.80
2019-03-10T19:01:17.865Z,9.90
2019-03-10T19:03:46.303Z,10.82
2019-03-10T19:06:14.885Z,11.15
2019-03-10T19:08:43.336Z,10.95
2019-03-10T19:11:12.000Z,10.15
2019-03-10T19:13:41.002Z,10.95
2019-03-10T19:16:09.885Z,11.05
2019-03-10T19:18:38.712Z,10.93
2019-03-10T19:21:07.494Z,10.25
2019-03-10T19:23:36.058Z,12.93
2019-03-10T19:26:05.084Z,13.53
2019-03-10T19:28:33.776Z,15.53
2019-03-10T19:31:02.685Z,17.48
2019-03-10T19:33:31.415Z,19.35
2019-03-10T19:35:59.766Z,21.17
2019-03-10T19:38:28.156Z,20.05
2019-03-10T19:40:56.712Z,23.02
2019-03-10T19:43:25.389Z,19.65
2019-03-10T19:45:53.934Z,18.45
2019-03-10T19:48:22.430Z,18.10
2019-03-10T19:50:51.019Z,20.45
2019-03-10T19:53:19.658Z,22.67
2019-03-10T19:55:48.746Z,25.40
2019-03-10T19:58:17.533Z,23.15
2019-03-10T20:00:46.218Z,22.98
2019-03-10T20:03:14.715Z,25.00
2019-03-10T20:05:43.047Z,24.55
2019-03-10T20:08:13.313Z,26.73
2019-03-10T20:10:42.089Z,28.67
2019-03-10T20:13:10.355Z,30.92
2019-03-10T20:15:38.777Z,31.68
2019-03-10T20:18:09.170Z,29.57
2019-03-10T20:20:37.515Z,27.73
2019-03-10T20:23:06.388Z,26.68
2019-03-10T20:25:34.753Z,31.65
2019-03-10T20:28:03.123Z,31.40
2019-03-10T20:30:31.649Z,25.70
2019-03-10T20:33:00.535Z,26.25
2019-03-10T20:35:28.880Z,27.73
2019-03-10T20:37:57.395Z,24.70
2019-03-10T20:40:25.968Z,27.52
2019-03-10T20:42:54.659Z,24.65
2019-03-10T20:45:24.739Z,25.17
2019-03-10T20:47:56.316Z,26.30
2019-03-10T20:50:24.236Z,26.57
2019-03-10T20:52:52.777Z,22.48
2019-03-10T20:55:21.515Z,23.70
2019-03-10T20:57:49.922Z,25.15
2019-03-10T21:00:19.114Z,27.75
2019-03-10T21:02:47.702Z,24.18
2019-03-10T21:05:16.519Z,24.67
2019-03-10T21:07:45.171Z,25.10
2019-03-10T21:10:14.431Z,27.77
2019-03-10T21:12:42.979Z,28.15
2019-03-10T21:15:16.049Z,30.02
2019-03-10T21:17:44.551Z,28.52
2019-03-10T21:20:14.593Z,28.38
2019-03-10T21:22:42.950Z,25.32
2019-03-10T21:25:14.977Z,25.92
2019-03-10T21:27:43.318Z,24.00
2019-03-10T21:30:15.710Z,25.37
2019-03-10T21:32:44.044Z,24.12
2019-03-10T21:35:17.744Z,26.70
2019-03-10T21:37:42.623Z,27.35
2019-03-10T21:40:13.602Z,31.37
2019-03-10T21:42:42.184Z,33.73
2019-03-10T21:45:11.104Z,31.82
2019-03-10T21:47:39.490Z,31.57
2019-03-10T21:50:10.119Z,31.07
2019-03-10T21:55:07.589Z,28.40
2019-03-10T21:57:35.985Z,30.68
2019-03-10T22:00:04.833Z,30.52
2019-03-10T22:02:33.350Z,31.90
2019-03-10T22:05:01.830Z,34.95
2019-03-10T22:07:30.440Z,33.75
2019-03-10T22:09:58.929Z,32.90
2019-03-10T22:12:27.375Z,30.52
2019-03-10T22:14:55.689Z,32.85
2019-03-10T22:17:24.471Z,31.90
2019-03-10T22:19:52.813Z,33.25
2019-03-10T22:22:21.473Z,33.78
2019-03-10T22:24:49.884Z,37.00
2019-03-10T22:27:18.531Z,31.93
2019-03-10T22:29:47.210Z,31.52
2019-03-10T22:32:15.933Z,35.08
2019-03-10T22:34:44.590Z,34.60
2019-03-10T22:37:13.414Z,36.38
2019-03-10T22:39:42.239Z,35.68
2019-03-10T22:42:11.176Z,33.28
2019-03-10T22:44:39.720Z,32.65
2019-03-10T22:47:08.755Z,32.28
2019-03-10T22:49:37.706Z,32.03
2019-03-10T22:52:06.697Z,30.90
2019-03-10T22:54:35.287Z,29.18
2019-03-10T22:57:03.663Z,32.65
2019-03-10T22:59:32.131Z,30.95
2019-03-10T23:02:00.714Z,32.85
2019-03-10T23:04:29.011Z,28.40
2019-03-10T23:06:57.530Z,31.37
2019-03-10T23:09:26.302Z,30.25
2019-03-10T23:11:54.738Z,27.52
2019-03-10T23:14:23.275Z,27.77
2019-03-10T23:16:52.546Z,25.40
2019-03-10T23:19:20.942Z,27.45
2019-03-10T23:21:49.699Z,26.52
2019-03-10T23:24:18.326Z,28.45
2019-03-10T23:26:46.706Z,25.60
2019-03-10T23:29:15.109Z,27.50
2019-03-10T23:31:43.503Z,27.40
2019-03-10T23:34:11.849Z,26.15
2019-03-10T23:36:40.546Z,25.57
2019-03-10T23:39:08.943Z,26.07
2019-03-10T23:41:37.239Z,25.72
2019-03-10T23:44:05.751Z,25.75
2019-03-10T23:46:34.441Z,23.95
2019-03-10T23:49:03.005Z,24.47
2019-03-10T23:51:31.453Z,23.98
2019-03-10T23:53:59.719Z,26.27
2019-03-10T23:56:28.813Z,24.87
2019-03-10T23:58:57.251Z,25.12
